Time;durP1;ratioP1;P1;durP2;ratioP2;P2;SDS_P1;SDS_P2;PMS_P1;PMS_P2;Temp;Humidity;BMP_temperature;BMP_pressure;BME280_temperature;BME280_humidity;BME280_pressure;Samples;Min_cycle;Max_cycle;Signal;HPM_P1;HPM_P2
2021/12/26 00:01:06;;;;;;;10.43;7.00;;;256.70;1868.80;;;;;;5092438;28;20047;-65
2021/12/26 00:03:33;;;;;;;10.10;7.07;;;256.60;1843.20;;;;;;5089955;28;20109;-65
2021/12/26 00:06:06;;;;;;;9.77;6.80;;;256.50;1868.80;;;;;;5092362;28;20040;-64
2021/12/26 00:08:36;;;;;;;10.45;6.43;;;256.40;1868.80;;;;;;5090707;28;20042;-64
2021/12/26 00:11:03;;;;;;;8.77;6.15;;;256.30;1868.80;;;;;;5092554;28;20028;-64
2021/12/26 00:13:30;;;;;;;8.07;5.60;;;256.30;1868.80;;;;;;5091380;28;20020;-66
2021/12/26 00:15:57;;;;;;;9.85;6.88;;;256.10;1868.80;;;;;;5092441;28;20488;-64
2021/12/26 00:18:23;;;;;;;9.63;6.82;;;256.00;1894.40;;;;;;5092460;28;20039;-64
2021/12/26 00:20:49;;;;;;;10.73;6.95;;;256.00;1868.80;;;;;;5092638;28;20020;-64
2021/12/26 00:23:16;;;;;;;7.85;5.45;;;231.30;1894.40;;;;;;5092804;28;20028;-64
2021/12/26 00:25:44;;;;;;;8.43;5.78;;;231.30;1894.40;;;;;;5092451;28;20152;-64
2021/12/26 00:28:10;;;;;;;8.98;5.32;;;231.20;1868.80;;;;;;5092487;28;20386;-64
2021/12/26 00:30:36;;;;;;;6.43;4.88;;;231.10;1868.80;;;;;;5091816;28;20020;-64
2021/12/26 00:33:02;;;;;;;6.80;5.45;;;231.00;1843.20;;;;;;5092212;28;20043;-65
2021/12/26 00:35:27;;;;;;;7.45;5.32;;;231.00;1868.80;;;;;;5091824;28;20024;-63
2021/12/26 00:37:54;;;;;;;10.48;6.30;;;230.90;1868.80;;;;;;5092427;28;20481;-64
2021/12/26 00:40:22;;;;;;;18.17;9.73;;;230.90;1868.80;;;;;;5091866;28;20024;-64
2021/12/26 00:42:49;;;;;;;20.95;10.18;;;230.80;1894.40;;;;;;5091323;28;20126;-64
2021/12/26 00:45:16;;;;;;;17.20;9.43;;;230.80;1868.80;;;;;;5092724;28;20150;-64
2021/12/26 00:47:42;;;;;;;19.85;10.77;;;230.70;1894.40;;;;;;5095754;28;20478;-63
2021/12/26 00:50:11;;;;;;;22.70;12.52;;;230.70;1894.40;;;;;;5095868;28;20173;-63
2021/12/26 00:52:37;;;;;;;22.90;13.70;;;230.60;1894.40;;;;;;5093422;28;20031;-63
2021/12/26 00:55:06;;;;;;;17.60;10.50;;;230.60;1920.00;;;;;;5095664;28;20036;-63
2021/12/26 00:57:32;;;;;;;12.98;7.80;;;230.60;1894.40;;;;;;5095926;28;20501;-63
2021/12/26 00:59:58;;;;;;;10.50;6.78;;;230.60;1920.00;;;;;;5095871;28;20153;-61
2021/12/26 01:02:24;;;;;;;10.93;7.43;;;230.50;1894.40;;;;;;5093355;28;20553;-61
2021/12/26 01:04:50;;;;;;;10.65;7.32;;;230.40;1894.40;;;;;;5096287;28;20107;-62
2021/12/26 01:07:30;;;;;;;9.13;6.43;;;230.40;1920.00;;;;;;5095741;28;20047;-61
2021/12/26 01:09:56;;;;;;;8.38;5.28;;;230.40;1894.40;;;;;;5094946;28;20028;-61
2021/12/26 01:12:23;;;;;;;8.90;5.82;;;230.40;1920.00;;;;;;5095181;28;20099;-61
2021/12/26 01:14:56;;;;;;;7.45;5.20;;;205.70;1920.00;;;;;;5095912;28;20053;-61
2021/12/26 01:17:24;;;;;;;6.75;4.50;;;205.60;1920.00;;;;;;5093674;28;20016;-63
2021/12/26 01:19:52;;;;;;;5.85;4.72;;;205.60;1920.00;;;;;;5095775;28;20435;-61
2021/12/26 01:22:20;;;;;;;6.65;4.78;;;205.60;1920.00;;;;;;5093269;28;20028;-61
2021/12/26 01:24:48;;;;;;;8.43;4.60;;;205.60;1945.60;;;;;;5093100;28;20380;-65
2021/12/26 01:27:14;;;;;;;12.48;5.57;;;205.60;1920.00;;;;;;5092331;28;20050;-64
2021/12/26 01:29:40;;;;;;;6.07;4.10;;;205.60;1945.60;;;;;;5095589;28;20028;-63
2021/12/26 01:32:07;;;;;;;4.30;2.88;;;205.50;1945.60;;;;;;5095435;28;20032;-63
2021/12/26 01:34:33;;;;;;;3.55;2.70;;;205.40;1945.60;;;;;;5095723;28;20531;-64
2021/12/26 01:36:59;;;;;;;4.22;3.05;;;205.40;1945.60;;;;;;5094352;28;20058;-62
2021/12/26 01:39:25;;;;;;;5.03;3.13;;;205.40;1920.00;;;;;;5095601;28;20473;-63
2021/12/26 01:41:52;;;;;;;2.88;2.25;;;205.40;1945.60;;;;;;5095332;28;20099;-63
2021/12/26 01:44:18;;;;;;;8.07;3.70;;;205.30;1920.00;;;;;;5095370;28;20024;-61
2021/12/26 01:46:49;;;;;;;6.40;3.17;;;205.40;2022.40;;;;;;5095132;28;20035;-65
2021/12/26 01:49:18;;;;;;;4.65;3.35;;;205.40;1945.60;;;;;;5096653;28;20045;-66
2021/12/26 01:51:46;;;;;;;8.95;5.15;;;205.40;1945.60;;;;;;5096641;28;20115;-65
2021/12/26 01:54:15;;;;;;;12.40;6.85;;;205.50;1920.00;;;;;;5097014;28;20024;-64
2021/12/26 01:56:42;;;;;;;6.93;3.97;;;205.40;1920.00;;;;;;5096488;28;20031;-66
2021/12/26 01:59:11;;;;;;;4.82;3.17;;;205.40;1920.00;;;;;;5096801;28;20394;-65
2021/12/26 02:01:37;;;;;;;4.40;3.00;;;205.40;1920.00;;;;;;5096536;28;20020;-66
2021/12/26 02:04:03;;;;;;;4.60;2.92;;;205.40;1894.40;;;;;;5096366;28;20052;-65
2021/12/26 02:06:30;;;;;;;3.42;2.60;;;205.40;1920.00;;;;;;5096444;28;20090;-64
2021/12/26 02:08:56;;;;;;;3.58;2.47;;;205.30;1920.00;;;;;;5096513;28;20103;-65
2021/12/26 02:11:22;;;;;;;4.15;2.47;;;205.40;1920.00;;;;;;5096460;28;20028;-65
2021/12/26 02:13:48;;;;;;;2.50;2.00;;;205.30;1894.40;;;;;;5096317;28;20028;-64
2021/12/26 02:16:14;;;;;;;3.90;2.70;;;205.30;1920.00;;;;;;5096192;28;20705;-65
2021/12/26 02:18:40;;;;;;;4.88;2.75;;;205.40;1894.40;;;;;;5094860;28;20473;-65
2021/12/26 02:29:00;;;;;;;6.67;2.60;;;205.30;1920.00;;;;;;5096281;28;20437;-64
2021/12/26 02:31:26;;;;;;;4.75;2.60;;;205.10;1920.00;;;;;;5095767;28;20292;-66
2021/12/26 02:33:52;;;;;;;5.72;3.00;;;205.20;1894.40;;;;;;5096268;28;20027;-67
2021/12/26 02:36:17;;;;;;;3.92;2.92;;;205.20;1920.00;;;;;;5095482;28;20024;-65
2021/12/26 02:38:43;;;;;;;4.85;2.80;;;205.20;1920.00;;;;;;5096045;28;20032;-66
2021/12/26 02:41:09;;;;;;;4.35;2.35;;;205.20;1894.40;;;;;;5095866;28;20025;-66
2021/12/26 02:43:36;;;;;;;4.57;2.53;;;205.20;1920.00;;;;;;5095688;28;20024;-65
2021/12/26 02:46:06;;;;;;;6.05;2.65;;;205.20;1894.40;;;;;;5095406;28;20115;-66
2021/12/26 02:48:32;;;;;;;4.82;2.30;;;205.20;1894.40;;;;;;5095795;28;20035;-66
2021/12/26 02:50:58;;;;;;;5.22;2.60;;;205.20;1894.40;;;;;;5095700;28;20089;-66
2021/12/26 02:53:24;;;;;;;3.83;2.45;;;205.20;1894.40;;;;;;5095610;28;20124;-65
2021/12/26 02:55:52;;;;;;;4.65;2.47;;;205.10;1894.40;;;;;;5095578;28;20028;-66
2021/12/26 02:58:18;;;;;;;4.28;2.38;;;205.10;1894.40;;;;;;5095538;28;20025;-64
2021/12/26 03:00:53;;;;;;;5.88;2.88;;;205.10;1894.40;;;;;;5093224;28;20173;-66
2021/12/26 03:03:19;;;;;;;4.43;1.95;;;205.10;1868.80;;;;;;5094932;28;20051;-63
2021/12/26 03:05:46;;;;;;;3.13;1.80;;;205.00;1894.40;;;;;;5094822;28;20039;-66
2021/12/26 03:08:18;;;;;;;5.38;2.58;;;205.00;1894.40;;;;;;5094713;28;20034;-66
2021/12/26 03:10:45;;;;;;;3.97;2.25;;;204.90;1894.40;;;;;;5093668;28;20051;-66
2021/12/26 03:13:13;;;;;;;4.35;2.92;;;204.90;1894.40;;;;;;5095359;28;20454;-63
2021/12/26 03:15:39;;;;;;;4.15;2.72;;;204.90;1894.40;;;;;;5095161;28;20389;-63
2021/12/26 03:18:07;;;;;;;3.35;2.65;;;204.90;1894.40;;;;;;5093663;28;20046;-63
2021/12/26 03:20:41;;;;;;;5.07;2.92;;;204.90;1894.40;;;;;;5095236;28;20036;-64
2021/12/26 03:23:08;;;;;;;3.67;2.92;;;204.90;1894.40;;;;;;5094147;28;20085;-66
2021/12/26 03:25:35;;;;;;;5.30;3.05;;;204.90;1894.40;;;;;;5094993;28;20032;-62
2021/12/26 03:28:04;;;;;;;3.55;2.30;;;204.80;1894.40;;;;;;5093598;28;20024;-65
2021/12/26 03:30:31;;;;;;;5.05;3.10;;;204.80;1894.40;;;;;;5094762;28;20020;-62
2021/12/26 03:32:58;;;;;;;4.13;3.08;;;204.80;1894.40;;;;;;5095187;28;20024;-61
2021/12/26 03:35:26;;;;;;;5.53;3.28;;;204.80;1868.80;;;;;;5094618;28;20099;-59
2021/12/26 03:37:54;;;;;;;5.20;3.08;;;204.80;1868.80;;;;;;5093425;28;20059;-59
2021/12/26 03:40:20;;;;;;;4.85;3.10;;;204.80;1868.80;;;;;;5094706;28;20031;-62
2021/12/26 03:42:46;;;;;;;4.05;2.85;;;180.10;1894.40;;;;;;5094508;28;20028;-61
2021/12/26 03:45:12;;;;;;;2.95;2.40;;;180.10;1894.40;;;;;;5094386;28;20111;-63
2021/12/26 03:47:39;;;;;;;3.75;2.60;;;180.10;1868.80;;;;;;5094210;28;20071;-63
2021/12/26 03:50:07;;;;;;;4.88;3.10;;;180.10;1868.80;;;;;;5093340;28;20086;-61
2021/12/26 03:52:33;;;;;;;3.30;2.75;;;180.10;1868.80;;;;;;5094409;28;20115;-62
2021/12/26 03:54:59;;;;;;;7.00;3.90;;;180.00;1868.80;;;;;;5094210;28;20028;-63
2021/12/26 03:57:25;;;;;;;4.72;3.22;;;180.00;1868.80;;;;;;5092395;28;20039;-64
2021/12/26 03:59:51;;;;;;;4.10;3.10;;;179.90;1894.40;;;;;;5093812;28;20111;-62
2021/12/26 04:02:17;;;;;;;4.97;3.33;;;179.80;1868.80;;;;;;5094094;28;20125;-62
2021/12/26 04:04:44;;;;;;;6.15;3.33;;;179.80;1868.80;;;;;;5094308;28;20074;-62
2021/12/26 04:07:11;;;;;;;3.40;2.80;;;179.80;1868.80;;;;;;5092868;28;20040;-61
2021/12/26 04:09:37;;;;;;;4.45;3.08;;;179.80;1868.80;;;;;;5094247;28;20071;-62
2021/12/26 04:12:04;;;;;;;5.53;3.53;;;179.80;1868.80;;;;;;5094027;28;20032;-62
2021/12/26 04:14:29;;;;;;;6.15;3.63;;;179.80;1843.20;;;;;;5094182;28;20531;-63
2021/12/26 04:16:55;;;;;;;4.32;3.25;;;179.70;1868.80;;;;;;5094048;28;20032;-59
2021/12/26 04:19:21;;;;;;;4.00;3.28;;;179.70;1868.80;;;;;;5093505;28;20055;-62
2021/12/26 04:21:47;;;;;;;4.45;3.60;;;179.60;1868.80;;;;;;5093643;28;20052;-62
2021/12/26 04:24:13;;;;;;;5.63;3.38;;;179.60;1894.40;;;;;;5093556;28;20077;-61
2021/12/26 04:26:39;;;;;;;7.43;3.92;;;179.60;1843.20;;;;;;5093979;28;20056;-60
2021/12/26 04:29:07;;;;;;;5.10;3.58;;;179.60;1868.80;;;;;;5094416;28;20047;-59
2021/12/26 04:31:33;;;;;;;4.95;3.70;;;179.60;1843.20;;;;;;5092419;28;20024;-63
2021/12/26 04:33:58;;;;;;;3.58;3.20;;;179.60;1868.80;;;;;;5093923;28;20031;-62
2021/12/26 04:36:24;;;;;;;4.25;3.67;;;179.50;1843.20;;;;;;5093701;28;20032;-63
2021/12/26 04:38:50;;;;;;;5.28;3.97;;;179.50;1843.20;;;;;;5093643;28;20028;-63
2021/12/26 04:41:16;;;;;;;5.40;3.70;;;179.40;1894.40;;;;;;5093677;28;20032;-63
2021/12/26 04:43:42;;;;;;;7.57;3.65;;;179.50;1868.80;;;;;;5093431;28;20028;-62
2021/12/26 04:46:09;;;;;;;6.97;4.18;;;179.50;1868.80;;;;;;5092361;28;20051;-62
2021/12/26 04:48:36;;;;;;;4.72;3.67;;;179.40;1868.80;;;;;;5093648;28;20028;-62
2021/12/26 04:51:03;;;;;;;6.47;4.22;;;179.40;1868.80;;;;;;5093344;28;20101;-61
2021/12/26 04:53:29;;;;;;;6.00;3.90;;;179.40;1894.40;;;;;;5093574;28;20035;-62
2021/12/26 04:55:54;;;;;;;3.67;3.08;;;179.40;1868.80;;;;;;5092218;28;20036;-61
2021/12/26 04:58:20;;;;;;;3.92;3.28;;;179.30;1868.80;;;;;;5093575;28;20063;-62
2021/12/26 05:00:46;;;;;;;4.38;3.20;;;179.30;1868.80;;;;;;5093495;28;20031;-61
2021/12/26 05:03:13;;;;;;;4.72;3.22;;;179.30;1868.80;;;;;;5093480;28;20090;-59
2021/12/26 05:05:39;;;;;;;5.22;3.67;;;179.20;1894.40;;;;;;5093352;28;20474;-62
2021/12/26 05:08:05;;;;;;;3.88;3.17;;;179.30;1868.80;;;;;;5093521;28;20028;-61
2021/12/26 05:10:31;;;;;;;4.85;3.90;;;179.20;1868.80;;;;;;5093625;28;20428;-65
2021/12/26 05:12:59;;;;;;;4.93;3.80;;;179.30;1868.80;;;;;;5093381;28;20113;-63
2021/12/26 05:15:25;;;;;;;6.28;4.20;;;179.20;1868.80;;;;;;5093449;28;20020;-63
2021/12/26 05:17:53;;;;;;;8.70;4.45;;;179.20;1868.80;;;;;;5093392;28;20032;-64
2021/12/26 05:20:20;;;;;;;6.68;4.70;;;179.30;1843.20;;;;;;5093626;28;20017;-64
2021/12/26 05:22:47;;;;;;;5.35;4.05;;;179.20;1894.40;;;;;;5093424;28;20020;-60
2021/12/26 05:25:13;;;;;;;7.65;4.72;;;179.20;1843.20;;;;;;5093489;28;20205;-64
2021/12/26 05:27:40;;;;;;;7.10;5.10;;;179.20;1868.80;;;;;;5092785;28;20047;-64
2021/12/26 05:30:08;;;;;;;7.68;5.38;;;179.20;1894.40;;;;;;5093247;28;20035;-60
2021/12/26 05:32:34;;;;;;;8.30;5.68;;;179.20;1868.80;;;;;;5095614;28;20036;-60
2021/12/26 05:35:00;;;;;;;10.50;5.55;;;179.20;1868.80;;;;;;5097193;28;20025;-60
2021/12/26 05:37:25;;;;;;;7.72;5.25;;;179.20;1868.80;;;;;;5097238;28;20020;-64
2021/12/26 05:39:51;;;;;;;8.95;5.30;;;179.20;1894.40;;;;;;5095107;28;20043;-61
2021/12/26 05:42:17;;;;;;;6.43;4.80;;;179.20;1894.40;;;;;;5096764;28;20110;-61
2021/12/26 05:44:43;;;;;;;6.22;4.85;;;179.20;1868.80;;;;;;5096462;28;20141;-63
2021/12/26 05:47:09;;;;;;;7.18;4.38;;;179.20;1868.80;;;;;;5096564;28;20057;-61
2021/12/26 05:49:35;;;;;;;6.13;5.05;;;179.20;1843.20;;;;;;5096923;28;20047;-61
2021/12/26 05:52:01;;;;;;;7.38;5.05;;;154.50;1868.80;;;;;;5096810;28;20043;-61
2021/12/26 05:54:27;;;;;;;6.03;4.45;;;154.50;1894.40;;;;;;5096863;28;20479;-64
2021/12/26 05:56:53;;;;;;;7.63;4.95;;;154.40;1868.80;;;;;;5096780;28;20055;-65
2021/12/26 05:59:19;;;;;;;9.57;5.32;;;154.50;1894.40;;;;;;5096846;28;20035;-64
2021/12/26 06:01:45;;;;;;;11.35;5.63;;;154.40;1843.20;;;;;;5096511;28;20012;-61
2021/12/26 06:04:11;;;;;;;11.88;5.53;;;154.40;1894.40;;;;;;5095998;28;20489;-64
2021/12/26 06:06:36;;;;;;;15.07;6.10;;;154.40;1894.40;;;;;;5095205;28;20086;-64
2021/12/26 06:09:03;;;;;;;10.57;5.90;;;154.40;1868.80;;;;;;5096493;28;20055;-60
2021/12/26 06:11:29;;;;;;;10.18;6.10;;;154.40;1894.40;;;;;;5096605;28;20465;-62
2021/12/26 06:13:55;;;;;;;10.93;6.03;;;154.40;1843.20;;;;;;5096193;28;20103;-62
2021/12/26 06:16:21;;;;;;;7.93;5.28;;;154.40;1868.80;;;;;;5095871;28;20119;-60
2021/12/26 06:18:47;;;;;;;6.47;4.47;;;154.40;1868.80;;;;;;5096409;28;20023;-62
2021/12/26 06:21:12;;;;;;;7.28;5.30;;;154.30;1868.80;;;;;;5096155;28;20054;-59
2021/12/26 06:23:38;;;;;;;8.20;5.63;;;154.40;1868.80;;;;;;5096360;28;20031;-63
2021/12/26 06:26:04;;;;;;;8.48;5.65;;;154.30;1843.20;;;;;;5095819;28;20024;-60
2021/12/26 06:28:29;;;;;;;9.00;5.60;;;154.20;1920.00;;;;;;5096372;28;20458;-59
2021/12/26 06:30:55;;;;;;;9.25;5.82;;;154.30;1894.40;;;;;;5095812;28;20051;-63
2021/12/26 06:33:21;;;;;;;10.07;5.85;;;154.30;1868.80;;;;;;5095555;28;20465;-63
2021/12/26 06:35:49;;;;;;;10.73;6.32;;;154.30;1894.40;;;;;;5096000;28;20020;-64
2021/12/26 06:38:15;;;;;;;11.88;7.38;;;154.30;1843.20;;;;;;5095991;28;20106;-64
2021/12/26 06:40:40;;;;;;;13.10;7.75;;;154.20;1868.80;;;;;;5095731;28;20504;-59
2021/12/26 06:43:07;;;;;;;13.27;7.63;;;154.30;1868.80;;;;;;5094991;28;20062;-60
2021/12/26 06:45:32;;;;;;;17.92;9.27;;;154.20;1894.40;;;;;;5095665;28;20028;-63
2021/12/26 06:48:02;;;;;;;15.38;8.70;;;154.20;1894.40;;;;;;5095678;28;20032;-63
2021/12/26 06:50:28;;;;;;;14.30;8.43;;;154.20;1868.80;;;;;;5095606;28;20020;-65
2021/12/26 06:52:54;;;;;;;19.00;9.48;;;154.00;1894.40;;;;;;5095513;28;20032;-63
2021/12/26 06:55:20;;;;;;;17.27;8.48;;;154.10;1894.40;;;;;;5094131;28;20024;-63
2021/12/26 06:57:46;;;;;;;15.15;8.80;;;154.10;1894.40;;;;;;5095415;28;20020;-64
2021/12/26 07:00:14;;;;;;;58.17;18.95;;;154.00;1920.00;;;;;;5095967;28;20027;-66
2021/12/26 07:02:41;;;;;;;30.52;11.68;;;154.20;2048.00;;;;;;5095088;28;20044;-65
2021/12/26 07:05:07;;;;;;;26.70;12.63;;;154.20;1945.60;;;;;;5095213;28;20028;-62
2021/12/26 07:07:32;;;;;;;20.27;11.95;;;154.10;1920.00;;;;;;5095295;28;20043;-66
2021/12/26 07:09:59;;;;;;;25.50;14.45;;;154.00;1920.00;;;;;;5093405;28;20497;-60
2021/12/26 07:12:25;;;;;;;23.98;12.43;;;153.90;1945.60;;;;;;5095323;28;20110;-66
2021/12/26 07:14:50;;;;;;;26.52;14.20;;;154.00;1945.60;;;;;;5094698;28;20419;-66
2021/12/26 07:17:16;;;;;;;21.05;13.02;;;154.00;1920.00;;;;;;5094643;28;20031;-61
2021/12/26 07:19:42;;;;;;;26.73;14.68;;;154.10;1920.00;;;;;;5095162;28;20038;-65
2021/12/26 07:22:08;;;;;;;31.10;15.90;;;154.00;1945.60;;;;;;5095028;28;20054;-73
2021/12/26 07:24:34;;;;;;;24.25;13.32;;;154.10;1920.00;;;;;;5094942;28;20039;-65
2021/12/26 07:27:00;;;;;;;22.08;13.38;;;154.10;1920.00;;;;;;5094367;28;20040;-66
2021/12/26 07:29:26;;;;;;;19.75;11.70;;;154.00;1920.00;;;;;;5094638;28;20024;-64
2021/12/26 07:31:51;;;;;;;19.23;11.05;;;154.00;1945.60;;;;;;5094211;28;20495;-62
2021/12/26 07:34:17;;;;;;;16.23;10.18;;;154.00;1945.60;;;;;;5094671;28;20020;-66
2021/12/26 07:36:43;;;;;;;19.15;12.20;;;154.00;1945.60;;;;;;5094544;28;20051;-62
2021/12/26 07:39:09;;;;;;;19.10;12.10;;;153.90;1945.60;;;;;;5094026;28;20028;-63
2021/12/26 07:41:34;;;;;;;27.67;17.17;;;153.90;1945.60;;;;;;5094485;28;20379;-65
2021/12/26 07:44:00;;;;;;;62.15;28.65;;;153.90;1945.60;;;;;;5094209;28;20035;-67
2021/12/26 07:46:26;;;;;;;113.10;49.42;;;154.00;1945.60;;;;;;5093806;28;20035;-64
2021/12/26 07:48:52;;;;;;;105.60;50.55;;;154.00;1920.00;;;;;;5091260;28;20031;-65
2021/12/26 07:51:20;;;;;;;95.07;46.58;;;154.10;1945.60;;;;;;5093740;28;20115;-61
2021/12/26 07:53:48;;;;;;;91.15;40.50;;;154.10;1945.60;;;;;;5094325;28;20024;-61
2021/12/26 07:56:14;;;;;;;95.38;43.47;;;154.00;1945.60;;;;;;5094646;28;20043;-66
2021/12/26 07:58:40;;;;;;;63.60;31.45;;;154.10;1920.00;;;;;;5094151;28;20470;-61
2021/12/26 08:01:06;;;;;;;60.72;30.30;;;154.10;1920.00;;;;;;5094107;28;20508;-62
2021/12/26 08:03:36;;;;;;;48.53;27.50;;;154.10;1920.00;;;;;;5094258;28;20055;-61
2021/12/26 08:06:02;;;;;;;35.70;21.52;;;154.10;1945.60;;;;;;5094308;28;20036;-61
2021/12/26 08:08:28;;;;;;;27.83;17.17;;;154.00;1945.60;;;;;;5094288;28;20039;-64
2021/12/26 08:10:54;;;;;;;27.08;15.95;;;154.10;1920.00;;;;;;5093951;28;20016;-62
2021/12/26 08:13:20;;;;;;;25.48;14.98;;;154.10;1920.00;;;;;;5094568;28;20035;-68
2021/12/26 08:15:46;;;;;;;33.03;18.40;;;154.20;1894.40;;;;;;5093984;28;20543;-68
2021/12/26 08:18:12;;;;;;;27.67;15.95;;;154.30;2048.00;;;;;;5094220;28;20020;-62
2021/12/26 08:20:37;;;;;;;46.80;27.63;;;154.40;1920.00;;;;;;5093645;28;20442;-65
2021/12/26 08:23:04;;;;;;;63.17;36.20;;;154.30;1920.00;;;;;;5093914;28;20506;-65
2021/12/26 08:25:30;;;;;;;65.55;38.42;;;154.20;1920.00;;;;;;5093880;28;20067;-65
2021/12/26 08:27:55;;;;;;;51.00;30.30;;;154.20;1920.00;;;;;;5094007;28;20058;-65
2021/12/26 08:30:21;;;;;;;70.07;37.40;;;154.10;1920.00;;;;;;5093979;28;20024;-63
2021/12/26 08:32:51;;;;;;;72.93;34.53;;;154.10;1920.00;;;;;;5093809;28;20493;-65
2021/12/26 08:35:17;;;;;;;95.43;42.75;;;154.00;1920.00;;;;;;5093724;28;20024;-65
2021/12/26 08:37:46;;;;;;;100.53;50.33;;;153.90;1945.60;;;;;;5093697;28;20118;-65
2021/12/26 08:40:14;;;;;;;49.38;26.50;;;153.90;1945.60;;;;;;5093581;28;20059;-61
2021/12/26 08:42:40;;;;;;;54.38;29.00;;;153.90;1971.20;;;;;;5093632;28;20028;-60
2021/12/26 08:45:06;;;;;;;52.90;25.40;;;153.90;1971.20;;;;;;5093429;28;20027;-64
2021/12/26 08:47:32;;;;;;;34.42;19.30;;;153.90;1971.20;;;;;;5093694;28;20039;-62
2021/12/26 08:49:58;;;;;;;37.72;23.17;;;153.90;1945.60;;;;;;5093898;28;20019;-65
2021/12/26 08:52:24;;;;;;;38.03;21.70;;;153.90;1971.20;;;;;;5093824;28;20103;-61
2021/12/26 08:54:50;;;;;;;33.88;20.67;;;153.80;1971.20;;;;;;5093679;28;20034;-60
2021/12/26 08:57:15;;;;;;;44.42;24.23;;;153.90;1971.20;;;;;;5093117;28;20028;-60
2021/12/26 08:59:42;;;;;;;45.08;27.63;;;153.90;1971.20;;;;;;5093600;28;20021;-64
2021/12/26 09:02:08;;;;;;;44.22;23.65;;;153.90;1945.60;;;;;;5092991;28;20462;-66
2021/12/26 09:04:36;;;;;;;41.65;21.90;;;153.90;1945.60;;;;;;5093048;28;20120;-65
2021/12/26 09:07:02;;;;;;;37.38;20.27;;;153.90;1971.20;;;;;;5095769;28;20040;-67
2021/12/26 09:09:29;;;;;;;30.27;16.55;;;154.00;2048.00;;;;;;5097219;28;20020;-64
2021/12/26 09:11:58;;;;;;;30.27;16.48;;;154.10;1996.80;;;;;;5095464;28;20527;-65
2021/12/26 09:14:24;;;;;;;30.50;18.73;;;154.00;1920.00;;;;;;5097059;28;20085;-63
2021/12/26 09:16:50;;;;;;;24.30;14.10;;;153.90;1920.00;;;;;;5097148;28;20028;-64
2021/12/26 09:19:16;;;;;;;27.55;14.25;;;153.90;1920.00;;;;;;5097212;28;20030;-62
2021/12/26 09:21:41;;;;;;;29.60;15.75;;;153.90;1971.20;;;;;;5097031;28;20469;-62
2021/12/26 09:24:07;;;;;;;36.42;20.73;;;153.90;1945.60;;;;;;5097263;28;20028;-65
2021/12/26 09:26:33;;;;;;;43.20;24.10;;;153.90;1945.60;;;;;;5095846;28;20485;-64
2021/12/26 09:28:59;;;;;;;40.03;24.13;;;153.90;1945.60;;;;;;5092543;28;20024;-64
2021/12/26 09:31:25;;;;;;;32.15;19.38;;;153.90;1945.60;;;;;;5094443;28;20036;-65
2021/12/26 09:33:51;;;;;;;27.63;17.90;;;153.90;1920.00;;;;;;5092763;28;20067;-63
2021/12/26 09:36:17;;;;;;;29.88;17.58;;;153.80;1945.60;;;;;;5095519;28;20463;-61
2021/12/26 09:38:43;;;;;;;36.90;22.02;;;153.80;1971.20;;;;;;5094628;28;20369;-61
2021/12/26 09:41:09;;;;;;;40.08;24.20;;;153.80;1971.20;;;;;;5094336;28;20036;-64
2021/12/26 09:43:35;;;;;;;44.08;26.63;;;153.80;1971.20;;;;;;5095472;28;20020;-65
2021/12/26 09:46:01;;;;;;;35.47;21.50;;;153.80;1945.60;;;;;;5095163;28;20036;-63
2021/12/26 09:48:26;;;;;;;35.45;21.33;;;153.80;1971.20;;;;;;5095406;28;20055;-60
2021/12/26 09:50:52;;;;;;;35.65;23.25;;;153.80;1945.60;;;;;;5094455;28;20031;-61
2021/12/26 09:53:18;;;;;;;36.80;24.35;;;153.70;1945.60;;;;;;5092036;28;20035;-61
2021/12/26 09:55:44;;;;;;;32.78;20.95;;;153.70;1971.20;;;;;;5094462;28;20145;-61
2021/12/26 09:58:10;;;;;;;33.13;20.63;;;153.70;1971.20;;;;;;5096880;28;20491;-64
2021/12/26 10:00:41;;;;;;;32.20;16.40;;;153.70;1945.60;;;;;;5095523;28;20056;-64
2021/12/26 10:03:24;;;;;;;34.60;17.17;;;153.70;1971.20;;;;;;5095912;28;20044;-65
2021/12/26 10:06:13;;;;;;;34.40;18.17;;;153.60;1971.20;;;;;;5096470;28;20028;-61
2021/12/26 10:08:59;;;;;;;38.45;21.23;;;153.70;1971.20;;;;;;5095974;28;20075;-61
2021/12/26 10:11:34;;;;;;;40.55;19.48;;;153.70;1971.20;;;;;;5095885;28;20020;-66
2021/12/26 10:14:04;;;;;;;;;;;153.70;1945.60;;;;;;5096857;28;20028;-63
2021/12/26 10:16:34;;;;;;;78.85;37.83;;;153.70;1971.20;;;;;;5094950;28;19908;-60
2021/12/26 10:19:03;;;;;;;48.97;28.35;;;153.70;1971.20;;;;;;5093870;28;20023;-64
2021/12/26 10:32:21;;;;;;;52.83;27.20;;;154.00;1945.60;;;;;;5114707;28;20477;-67
2021/12/26 10:34:48;;;;;;;80.65;35.00;;;153.90;1945.60;;;;;;5097993;28;20520;-61
2021/12/26 10:47:35;;;;;;;37.00;20.05;;;153.70;1971.20;;;;;;5114324;28;20560;-67
2021/12/26 10:50:02;;;;;;;30.45;16.98;;;153.60;1971.20;;;;;;5097455;28;20425;-62
2021/12/26 11:14:48;;;;;;;35.10;19.52;;;128.70;1996.80;;;;;;5418523;22;20126;-63
2021/12/26 11:17:33;;;;;;;32.45;19.60;;;128.60;1996.80;;;;;;5097801;28;20392;-61
2021/12/26 11:19:59;;;;;;;30.33;18.42;;;128.60;1996.80;;;;;;5103467;28;20067;-67
2021/12/26 11:22:25;;;;;;;36.30;20.08;;;128.60;1996.80;;;;;;5104920;28;20093;-74
2021/12/26 11:24:57;;;;;;;46.55;24.08;;;128.50;2022.40;;;;;;5103113;28;20069;-66
2021/12/26 11:27:24;;;;;;;50.67;24.13;;;128.50;2022.40;;;;;;5102702;28;20036;-64
2021/12/26 11:29:52;;;;;;;45.25;23.58;;;128.50;2022.40;;;;;;5103694;28;20027;-68
2021/12/26 11:32:19;;;;;;;36.08;22.48;;;128.50;2022.40;;;;;;5104476;28;20038;-61
2021/12/26 11:34:48;;;;;;;42.92;25.02;;;128.80;2099.20;;;;;;5104646;28;20016;-70
2021/12/26 11:37:16;;;;;;;42.78;25.73;;;153.60;2124.80;;;;;;5112916;28;20480;-68
2021/12/26 11:39:46;;;;;;;40.10;24.50;;;128.90;2073.60;;;;;;5115443;28;20376;-65
2021/12/26 11:42:33;;;;;;;58.08;38.92;;;128.90;2048.00;;;;;;5115197;28;20092;-70
2021/12/26 11:45:10;;;;;;;47.05;30.05;;;128.90;2048.00;;;;;;5113995;28;20069;-70
2021/12/26 11:48:09;;;;;;;96.90;51.08;;;128.90;2048.00;;;;;;5114818;28;20392;-70
2021/12/26 11:50:52;;;;;;;93.07;49.85;;;128.90;2048.00;;;;;;5115046;28;20023;-70
2021/12/26 11:53:51;;;;;;;65.32;35.35;;;128.90;2048.00;;;;;;5115059;28;20476;-65
2021/12/26 11:56:45;;;;;;;75.85;40.00;;;128.90;2022.40;;;;;;5114843;28;20019;-70
2021/12/26 11:59:53;;;;;;;44.00;23.20;;;128.90;2048.00;;;;;;5102712;28;20032;-72
2021/12/26 12:02:43;;;;;;;47.33;23.83;;;153.60;2124.80;;;;;;5097666;28;20063;-67
2021/12/26 12:05:21;;;;;;;65.25;28.02;;;153.70;2048.00;;;;;;5101252;28;20480;-67
2021/12/26 12:07:53;;;;;;;61.28;34.00;;;153.70;1996.80;;;;;;5103911;28;20108;-66
2021/12/26 12:10:53;;;;;;;65.03;34.55;;;153.60;1971.20;;;;;;5094327;28;20135;-67
2021/12/26 12:13:33;;;;;;;38.67;20.95;;;128.90;1945.60;;;;;;5031882;28;20099;-62
2021/12/26 12:16:05;;;;;;;36.35;20.38;;;128.70;1945.60;;;;;;5031646;28;20053;-59
2021/12/26 12:18:34;;;;;;;51.55;25.45;;;128.70;1971.20;;;;;;5031865;28;20048;-59
2021/12/26 12:21:22;;;;;;;49.10;25.50;;;128.70;1971.20;;;;;;5031908;28;20422;-67
2021/12/26 12:24:16;;;;;;;39.15;20.70;;;128.70;1945.60;;;;;;5031657;28;20036;-59
2021/12/26 12:26:44;;;;;;;36.53;18.40;;;128.60;1971.20;;;;;;5043101;28;20047;-66
2021/12/26 12:29:13;;;;;;;28.70;15.60;;;128.60;1996.80;;;;;;5052349;28;20040;-66
2021/12/26 12:31:40;;;;;;;33.05;18.08;;;128.60;1996.80;;;;;;5057421;28;20067;-67
2021/12/26 12:34:09;;;;;;;45.92;22.83;;;128.60;2022.40;;;;;;5052083;28;20021;-67
2021/12/26 12:36:41;;;;;;;37.63;20.50;;;128.60;2022.40;;;;;;5054866;28;20025;-66
2021/12/26 12:39:18;;;;;;;34.45;17.65;;;128.50;2022.40;;;;;;5052419;28;20036;-65
2021/12/26 12:41:49;;;;;;;29.80;15.55;;;128.50;1996.80;;;;;;5057693;28;20196;-67
2021/12/26 12:44:35;;;;;;;30.00;15.70;;;128.50;1971.20;;;;;;5053245;28;20371;-66
2021/12/26 12:47:14;;;;;;;27.48;13.13;;;128.40;1971.20;;;;;;5052695;28;20036;-66
2021/12/26 12:49:44;;;;;;;23.60;11.70;;;128.30;1996.80;;;;;;5062343;28;20036;-65
2021/12/26 12:52:36;;;;;;;28.85;14.75;;;128.40;2048.00;;;;;;5089798;28;20526;-66
2021/12/26 12:55:07;;;;;;;87.18;35.08;;;128.40;2022.40;;;;;;5093510;28;20031;-67
2021/12/26 12:57:37;;;;;;;134.48;60.42;;;128.40;2022.40;;;;;;5093835;28;20032;-67
2021/12/26 13:00:25;;;;;;;58.67;26.38;;;128.30;2048.00;;;;;;5093450;28;20035;-67
2021/12/26 13:02:56;;;;;;;39.53;19.98;;;128.40;2048.00;;;;;;5031292;28;20038;-66
2021/12/26 13:05:26;;;;;;;31.52;17.00;;;128.30;2022.40;;;;;;5031538;28;20046;-66